Time;durP1;ratioP1;P1;durP2;ratioP2;P2;SDS_P1;SDS_P2;PMS_P1;PMS_P2;Temp;Humidity;BMP_temperature;BMP_pressure;BME280_temperature;BME280_humidity;BME280_pressure;Samples;Min_cycle;Max_cycle;Signal;HPM_P1;HPM_P2
2020/12/15 00:00:58;;;;;;;;;;;;;;;;;;5011432;28;19917;-66
2020/12/15 00:03:24;;;;;;;;;;;;;;;;;;5011490;28;19905;-67
2020/12/15 00:05:50;;;;;;;;;;;;;;;;;;5012849;28;20458;-67
2020/12/15 00:08:16;;;;;;;;;;;;;;;;;;5012913;28;19932;-67
2020/12/15 00:10:44;;;;;;;;;;;;;;;;;;5012715;28;19906;-67
2020/12/15 00:13:12;;;;;;;;;;;;;;;;;;5011253;28;20444;-67
2020/12/15 00:15:38;;;;;;;;;;;;;;;;;;5011412;28;19927;-67
2020/12/15 00:18:04;;;;;;;;;;;;;;;;;;5012714;28;19905;-66
2020/12/15 00:20:31;;;;;;;;;;;;;;;;;;5012590;28;19905;-65
2020/12/15 00:22:57;;;;;;;;;;;;;;;;;;5012466;28;19917;-68
2020/12/15 00:25:23;;;;;;;;;;;;;;;;;;5012498;28;19912;-66
2020/12/15 00:27:49;;;;;;;;;;;;;;;;;;5012602;28;19965;-68
2020/12/15 00:30:15;;;;;;;;;;;;;;;;;;5013421;28;20269;-66
2020/12/15 00:32:41;;;;;;;;;;;;;;;;;;5013072;28;19968;-66
2020/12/15 00:35:07;;;;;;;;;;;;;;;;;;5017246;28;20387;-66
2020/12/15 00:37:33;;;;;;;;;;;;;;;;;;5016437;28;19940;-66
2020/12/15 00:39:59;;;;;;;;;;;;;;;;;;5012982;28;19913;-66
2020/12/15 00:42:25;;;;;;;;;;;;;;;;;;5012617;28;19967;-66
2020/12/15 00:44:51;;;;;;;;;;;;;;;;;;5012518;28;20000;-66
2020/12/15 00:47:20;;;;;;;;;;;;;;;;;;5012636;28;20040;-66
2020/12/15 00:49:46;;;;;;;;;;;;;;;;;;5013491;28;20354;-67
2020/12/15 00:52:12;;;;;;;;;;;;;;;;;;5013655;28;19913;-66
2020/12/15 00:54:38;;;;;;;;;;;;;;;;;;5013452;28;19905;-66
2020/12/15 00:57:04;;;;;;;;;;;;;;;;;;5013381;28;19912;-66
2020/12/15 00:59:30;;;;;;;;;;;;;;;;;;5011920;28;20008;-66
2020/12/15 01:01:56;;;;;;;;;;;;;;;;;;5013357;28;20405;-65
2020/12/15 01:04:22;;;;;;;;;;;;;;;;;;5013243;28;19905;-66
2020/12/15 01:06:48;;;;;;;;;;;;;;;;;;5013541;28;19956;-67
2020/12/15 01:09:13;;;;;;;;;;;;;;;;;;5013498;28;19937;-69
2020/12/15 01:11:39;;;;;;;;;;;;;;;;;;5013137;28;19913;-66
2020/12/15 01:14:05;;;;;;;;;;;;;;;;;;5013319;28;19988;-67
2020/12/15 01:16:31;;;;;;;;;;;;;;;;;;5011844;28;19909;-66
2020/12/15 01:18:57;;;;;;;;;;;;;;;;;;5013259;28;19906;-66
2020/12/15 01:21:23;;;;;;;;;;;;;;;;;;5013138;28;19913;-67
2020/12/15 01:23:49;;;;;;;;;;;;;;;;;;5013055;28;19909;-67
2020/12/15 01:26:15;;;;;;;;;;;;;;;;;;5012901;28;19906;-67
2020/12/15 01:28:41;;;;;;;;;;;;;;;;;;5013093;28;19913;-66
2020/12/15 01:31:07;;;;;;;;;;;;;;;;;;5013108;28;19912;-67
2020/12/15 01:33:33;;;;;;;;;;;;;;;;;;5012934;28;19905;-66
2020/12/15 01:35:59;;;;;;;;;;;;;;;;;;5012964;28;19906;-66
2020/12/15 01:38:24;;;;;;;;;;;;;;;;;;5012892;28;19909;-67
2020/12/15 01:40:50;;;;;;;;;;;;;;;;;;5012800;28;19912;-66
2020/12/15 01:43:16;;;;;;;;;;;;;;;;;;5012792;28;19981;-64
2020/12/15 01:45:42;;;;;;;;;;;;;;;;;;5012749;28;19909;-65
2020/12/15 01:48:08;;;;;;;;;;;;;;;;;;5011590;28;19928;-65
2020/12/15 01:50:34;;;;;;;;;;;;;;;;;;5014874;28;19905;-66
2020/12/15 01:53:00;;;;;;;;;;;;;;;;;;5019577;28;19910;-65
2020/12/15 01:55:26;;;;;;;;;;;;;;;;;;5021424;28;19909;-66
2020/12/15 01:57:52;;;;;;;;;;;;;;;;;;5016732;28;19905;-66
2020/12/15 02:00:18;;;;;;;;;;;;;;;;;;5016728;28;19905;-66
2020/12/15 02:02:44;;;;;;;;;;;;;;;;;;5016360;28;19939;-65
2020/12/15 02:05:10;;;;;;;;;;;;;;;;;;5016397;28;19905;-67
2020/12/15 02:07:36;;;;;;;;;;;;;;;;;;5015205;28;19908;-66
2020/12/15 02:10:02;;;;;;;;;;;;;;;;;;5016484;28;19905;-66
2020/12/15 02:12:27;;;;;;;;;;;;;;;;;;5016054;28;19913;-65
2020/12/15 02:14:53;;;;;;;;;;;;;;;;;;5016390;28;19971;-66
2020/12/15 02:17:19;;;;;;;;;;;;;;;;;;5016156;28;19972;-66
2020/12/15 02:19:45;;;;;;;;;;;;;;;;;;5016282;28;19913;-66
2020/12/15 02:22:11;;;;;;;;;;;;;;;;;;5016115;28;19960;-66
2020/12/15 02:24:37;;;;;;;;;;;;;;;;;;5016083;28;19906;-66
2020/12/15 02:27:03;;;;;;;;;;;;;;;;;;5016182;28;19902;-65
2020/12/15 02:29:29;;;;;;;;;;;;;;;;;;5016082;28;19952;-65
2020/12/15 02:31:55;;;;;;;;;;;;;;;;;;5016068;28;20349;-66
2020/12/15 02:34:21;;;;;;;;;;;;;;;;;;5016103;28;19902;-65
2020/12/15 02:36:47;;;;;;;;;;;;;;;;;;5014662;28;19913;-65
2020/12/15 02:39:13;;;;;;;;;;;;;;;;;;5014706;28;20044;-65
2020/12/15 02:41:39;;;;;;;;;;;;;;;;;;5015768;28;20000;-65
2020/12/15 02:44:05;;;;;;;;;;;;;;;;;;5015806;28;19909;-66
2020/12/15 02:46:31;;;;;;;;;;;;;;;;;;5015797;28;19902;-66
2020/12/15 02:48:57;;;;;;;;;;;;;;;;;;5015701;28;20412;-66
2020/12/15 02:51:23;;;;;;;;;;;;;;;;;;5015816;28;19941;-65
2020/12/15 02:53:49;;;;;;;;;;;;;;;;;;5015540;28;20265;-65
2020/12/15 02:56:15;;;;;;;;;;;;;;;;;;5015566;28;19905;-66
2020/12/15 02:58:41;;;;;;;;;;;;;;;;;;5015420;28;19909;-66
2020/12/15 03:01:07;;;;;;;;;;;;;;;;;;5014768;28;20495;-66
2020/12/15 03:03:33;;;;;;;;;;;;;;;;;;5015090;28;19912;-66
2020/12/15 03:05:59;;;;;;;;;;;;;;;;;;5015358;28;19916;-66
2020/12/15 03:08:25;;;;;;;;;;;;;;;;;;5015500;28;19912;-66
2020/12/15 03:10:51;;;;;;;;;;;;;;;;;;5015835;28;20001;-66
2020/12/15 03:13:16;;;;;;;;;;;;;;;;;;5014250;28;20346;-66
2020/12/15 03:15:42;;;;;;;;;;;;;;;;;;5015227;28;19932;-66
2020/12/15 03:18:08;;;;;;;;;;;;;;;;;;5013746;28;19905;-67
2020/12/15 03:20:34;;;;;;;;;;;;;;;;;;5013877;28;19960;-67
2020/12/15 03:23:00;;;;;;;;;;;;;;;;;;5013681;28;20377;-67
2020/12/15 03:25:26;;;;;;;;;;;;;;;;;;5015131;28;19905;-66
2020/12/15 03:27:52;;;;;;;;;;;;;;;;;;5013712;28;20413;-67
2020/12/15 03:30:18;;;;;;;;;;;;;;;;;;5014830;28;20270;-66
2020/12/15 03:32:44;;;;;;;;;;;;;;;;;;5015002;28;19905;-67
2020/12/15 03:35:10;;;;;;;;;;;;;;;;;;5014985;28;20305;-67
2020/12/15 03:37:36;;;;;;;;;;;;;;;;;;5014877;28;20354;-67
2020/12/15 03:40:02;;;;;;;;;;;;;;;;;;5014617;28;19912;-66
2020/12/15 03:42:28;;;;;;;;;;;;;;;;;;5014508;28;19960;-67
2020/12/15 03:44:54;;;;;;;;;;;;;;;;;;5014517;28;19913;-67
2020/12/15 03:47:20;;;;;;;;;;;;;;;;;;5014536;28;19913;-66
2020/12/15 03:49:46;;;;;;;;;;;;;;;;;;5014619;28;20004;-66
2020/12/15 03:52:12;;;;;;;;;;;;;;;;;;5014490;28;19906;-66
2020/12/15 03:54:38;;;;;;;;;;;;;;;;;;5014348;28;19930;-66
2020/12/15 03:57:03;;;;;;;;;;;;;;;;;;5014383;28;19928;-65
2020/12/15 03:59:29;;;;;;;;;;;;;;;;;;5014365;28;19905;-66
2020/12/15 04:01:57;;;;;;;;;;;;;;;;;;5014108;28;19920;-68
2020/12/15 04:04:23;;;;;;;;;;;;;;;;;;5014301;28;19912;-65
2020/12/15 04:06:49;;;;;;;;;;;;;;;;;;5012958;28;19905;-66
2020/12/15 04:09:15;;;;;;;;;;;;;;;;;;5014146;28;19912;-68
2020/12/15 04:11:41;;;;;;;;;;;;;;;;;;5014222;28;19906;-66
2020/12/15 04:14:06;;;;;;;;;;;;;;;;;;5014185;28;20281;-68
2020/12/15 04:16:32;;;;;;;;;;;;;;;;;;5014191;28;19920;-66
2020/12/15 04:18:58;;;;;;;;;;;;;;;;;;5014043;28;19912;-66
2020/12/15 04:21:24;;;;;;;;;;;;;;;;;;5013854;28;19920;-65
2020/12/15 04:23:50;;;;;;;;;;;;;;;;;;5015317;28;19927;-66
2020/12/15 04:26:16;;;;;;;;;;;;;;;;;;5016548;28;19902;-65
2020/12/15 04:28:42;;;;;;;;;;;;;;;;;;5015579;28;19905;-65
2020/12/15 04:31:08;;;;;;;;;;;;;;;;;;5015269;28;19951;-66
2020/12/15 04:33:34;;;;;;;;;;;;;;;;;;5015526;28;19905;-65
2020/12/15 04:36:00;;;;;;;;;;;;;;;;;;5013873;28;19905;-66
2020/12/15 04:38:26;;;;;;;;;;;;;;;;;;5013728;28;19901;-66
2020/12/15 04:40:52;;;;;;;;;;;;;;;;;;5012325;28;19912;-65
2020/12/15 04:43:17;;;;;;;;;;;;;;;;;;5013514;28;20344;-66
2020/12/15 04:45:43;;;;;;;;;;;;;;;;;;5012402;28;20297;-65
2020/12/15 04:48:09;;;;;;;;;;;;;;;;;;5012322;28;19909;-65
2020/12/15 04:50:35;;;;;;;;;;;;;;;;;;5013424;28;20273;-66
2020/12/15 04:53:01;;;;;;;;;;;;;;;;;;5013448;28;19941;-65
2020/12/15 04:55:28;;;;;;;;;;;;;;;;;;5013315;28;19971;-66
2020/12/15 04:57:56;;;;;;;;;;;;;;;;;;5012230;28;19906;-66
2020/12/15 05:00:22;;;;;;;;;;;;;;;;;;5013281;28;20227;-66
2020/12/15 05:02:49;;;;;;;;;;;;;;;;;;5013238;28;19921;-66
2020/12/15 05:05:15;;;;;;;;;;;;;;;;;;5011900;28;20424;-66
2020/12/15 05:07:41;;;;;;;;;;;;;;;;;;5013264;28;20014;-66
2020/12/15 05:10:07;;;;;;;;;;;;;;;;;;5013178;28;19948;-65
2020/12/15 05:12:32;;;;;;;;;;;;;;;;;;5012985;28;19948;-66
2020/12/15 05:14:58;;;;;;;;;;;;;;;;;;5013162;28;20429;-66
2020/12/15 05:17:24;;;;;;;;;;;;;;;;;;5013116;28;19909;-66
2020/12/15 05:19:50;;;;;;;;;;;;;;;;;;5012942;28;20468;-66
2020/12/15 05:22:16;;;;;;;;;;;;;;;;;;5012980;28;19921;-65
2020/12/15 05:24:42;;;;;;;;;;;;;;;;;;5012606;28;19913;-66
2020/12/15 05:27:08;;;;;;;;;;;;;;;;;;5011676;28;19906;-66
2020/12/15 05:29:34;;;;;;;;;;;;;;;;;;5013058;28;20005;-66
2020/12/15 05:32:00;;;;;;;;;;;;;;;;;;5011522;28;19996;-65
2020/12/15 05:34:26;;;;;;;;;;;;;;;;;;5013041;28;19905;-66
2020/12/15 05:36:52;;;;;;;;;;;;;;;;;;5012949;28;19959;-66
2020/12/15 05:39:18;;;;;;;;;;;;;;;;;;5012845;28;19909;-67
2020/12/15 05:41:44;;;;;;;;;;;;;;;;;;5013526;28;19956;-66
2020/12/15 05:44:10;;;;;;;;;;;;;;;;;;5015184;28;19931;-65
2020/12/15 05:46:37;;;;;;;;;;;;;;;;;;5012867;28;19909;-64
2020/12/15 05:49:03;;;;;;;;;;;;;;;;;;5012836;28;20590;-66
2020/12/15 05:51:29;;;;;;;;;;;;;;;;;;5012643;28;19921;-66
2020/12/15 05:53:55;;;;;;;;;;;;;;;;;;5012933;28;20303;-66
2020/12/15 05:56:21;;;;;;;;;;;;;;;;;;5012711;28;20278;-65
2020/12/15 05:58:47;;;;;;;;;;;;;;;;;;5012741;28;19906;-65
2020/12/15 06:01:13;;;;;;;;;;;;;;;;;;5012673;28;19921;-67
2020/12/15 06:03:39;;;;;;;;;;;;;;;;;;5011401;28;19932;-65
2020/12/15 06:06:05;;;;;;;;;;;;;;;;;;5012830;28;20342;-66
2020/12/15 06:08:31;;;;;;;;;;;;;;;;;;5012857;28;20325;-66
2020/12/15 06:10:57;;;;;;;;;;;;;;;;;;5012858;28;19975;-67
2020/12/15 06:13:23;;;;;;;;;;;;;;;;;;5011864;28;20321;-66
2020/12/15 06:15:49;;;;;;;;;;;;;;;;;;5012669;28;19905;-67
2020/12/15 06:18:15;;;;;;;;;;;;;;;;;;5012609;28;19906;-66
2020/12/15 06:20:41;;;;;;;;;;;;;;;;;;5012505;28;19934;-67
2020/12/15 06:23:07;;;;;;;;;;;;;;;;;;5012423;28;19913;-67
2020/12/15 06:25:33;;;;;;;;;;;;;;;;;;5011142;28;20308;-67
2020/12/15 06:27:59;;;;;;;;;;;;;;;;;;5012487;28;19905;-68
2020/12/15 06:30:24;;;;;;;;;;;;;;;;;;5012462;28;19905;-66
2020/12/15 06:32:50;;;;;;;;;;;;;;;;;;5012265;28;20007;-66
2020/12/15 06:35:16;;;;;;;;;;;;;;;;;;5012365;28;19906;-65
2020/12/15 06:37:42;;;;;;;;;;;;;;;;;;5014191;28;19906;-68
2020/12/15 06:40:10;;;;;;;;;;;;;;;;;;5015803;28;20420;-66
2020/12/15 06:42:36;;;;;;;;;;;;;;;;;;5016503;28;19913;-67
2020/12/15 06:45:04;;;;;;;;;;;;;;;;;;5015878;28;20424;-65
2020/12/15 06:47:30;;;;;;;;;;;;;;;;;;5016583;28;19905;-70
2020/12/15 06:49:56;;;;;;;;;;;;;;;;;;5016450;28;19906;-69
2020/12/15 06:52:22;;;;;;;;;;;;;;;;;;5016128;28;20031;-68
2020/12/15 06:54:48;;;;;;;;;;;;;;;;;;5016226;28;20366;-68
2020/12/15 06:57:14;;;;;;;;;;;;;;;;;;5018514;28;20247;-68
2020/12/15 06:59:40;;;;;;;;;;;;;;;;;;5017313;28;20354;-69
2020/12/15 07:02:06;;;;;;;;;;;;;;;;;;5015675;28;20312;-69
2020/12/15 07:04:32;;;;;;;;;;;;;;;;;;5015288;28;19905;-69
2020/12/15 07:06:59;;;;;;;;;;;;;;;;;;5013378;28;20314;-66
2020/12/15 07:09:25;;;;;;;;;;;;;;;;;;5015708;28;19906;-65
2020/12/15 07:11:51;;;;;;;;;;;;;;;;;;5015076;28;19916;-67
2020/12/15 07:14:17;;;;;;;;;;;;;;;;;;5015276;28;19959;-65
2020/12/15 07:16:42;;;;;;;;;;;;;;;;;;5015323;28;19984;-69
2020/12/15 07:19:08;;;;;;;;;;;;;;;;;;5015062;28;19933;-67
2020/12/15 07:21:34;;;;;;;;;;;;;;;;;;5014996;28;19923;-68
2020/12/15 07:24:00;;;;;;;;;;;;;;;;;;5013907;28;19939;-66
2020/12/15 07:26:26;;;;;;;;;;;;;;;;;;5014907;28;19959;-67
2020/12/15 07:28:52;;;;;;;;;;;;;;;;;;5012974;28;19905;-68
2020/12/15 07:31:18;;;;;;;;;;;;;;;;;;5011501;28;19912;-67
2020/12/15 07:33:44;;;;;;;;;;;;;;;;;;5012622;28;19944;-68
2020/12/15 07:36:10;;;;;;;;;;;;;;;;;;5012618;28;19913;-69
2020/12/15 07:38:36;;;;;;;;;;;;;;;;;;5012534;28;19943;-68
2020/12/15 07:41:02;;;;;;;;;;;;;;;;;;5012904;28;19945;-67
2020/12/15 07:43:28;;;;;;;;;;;;;;;;;;5013981;28;20270;-67
2020/12/15 07:45:54;;;;;;;;;;;;;;;;;;5014752;28;19912;-68
2020/12/15 07:48:20;;;;;;;;;;;;;;;;;;5014252;28;20347;-68
2020/12/15 07:50:45;;;;;;;;;;;;;;;;;;5013133;28;20417;-66
2020/12/15 07:53:11;;;;;;;;;;;;;;;;;;5013065;28;20015;-69
2020/12/15 07:55:37;;;;;;;;;;;;;;;;;;5013168;28;19955;-67
2020/12/15 07:58:03;;;;;;;;;;;;;;;;;;5013133;28;20351;-69
2020/12/15 08:00:29;;;;;;;;;;;;;;;;;;5013162;28;19945;-68
2020/12/15 08:02:55;;;;;;;;;;;;;;;;;;5014280;28;19991;-68
2020/12/15 08:05:21;;;;;;;;;;;;;;;;;;5013048;28;20297;-68
2020/12/15 08:07:47;;;;;;;;;;;;;;;;;;5014527;28;19956;-68
2020/12/15 08:10:13;;;;;;;;;;;;;;;;;;5014610;28;19912;-68
2020/12/15 08:12:39;;;;;;;;;;;;;;;;;;5014290;28;19913;-69
2020/12/15 08:15:05;;;;;;;;;;;;;;;;;;5017191;28;19905;-68
2020/12/15 08:17:31;;;;;;;;;;;;;;;;;;5014065;28;20350;-68
2020/12/15 08:19:58;;;;;;;;;;;;;;;;;;5013873;28;19905;-68
2020/12/15 08:22:24;;;;;;;;;;;;;;;;;;5013831;28;19920;-68
2020/12/15 08:24:50;;;;;;;;;;;;;;;;;;5013976;28;19906;-68
2020/12/15 08:27:16;;;;;;;;;;;;;;;;;;5012549;28;19906;-67
2020/12/15 08:29:42;;;;;;;;;;;;;;;;;;5014027;28;19905;-68
2020/12/15 08:32:08;;;;;;;;;;;;;;;;;;5013918;28;19964;-68
2020/12/15 08:34:34;;;;;;;;;;;;;;;;;;5013810;28;19905;-68
2020/12/15 08:37:00;;;;;;;;;;;;;;;;;;5013913;28;19909;-68
2020/12/15 08:39:30;;;;;;;;;;;;;;;;;;5013698;28;20285;-68
2020/12/15 08:41:56;;;;;;;;;;;;;;;;;;5013674;28;19967;-67
2020/12/15 08:44:22;;;;;;;;;;;;;;;;;;5013463;28;19913;-67
2020/12/15 08:46:48;;;;;;;;;;;;;;;;;;5013300;28;19913;-68
2020/12/15 08:49:14;;;;;;;;;;;;;;;;;;5012318;28;19905;-66
2020/12/15 08:51:40;;;;;;;;;;;;;;;;;;5013309;28;19924;-67
2020/12/15 08:54:06;;;;;;;;;;;;;;;;;;5012034;28;20344;-65
2020/12/15 08:56:32;;;;;;;;;;;;;;;;;;5013240;28;19905;-67
2020/12/15 08:58:58;;;;;;;;;;;;;;;;;;5009757;28;20401;-68
2020/12/15 09:01:24;;;;;;;;;;;;;;;;;;5011354;28;19920;-67
2020/12/15 09:03:49;;;;;;;;;;;;;;;;;;5011986;28;19905;-67
2020/12/15 09:06:15;;;;;;;;;;;;;;;;;;5013936;28;19913;-66
2020/12/15 09:08:41;;;;;;;;;;;;;;;;;;5013073;28;19917;-68
2020/12/15 09:11:07;;;;;;;;;;;;;;;;;;5013288;28;19909;-67
2020/12/15 09:13:33;;;;;;;;;;;;;;;;;;5011867;28;19967;-67
2020/12/15 09:15:59;;;;;;;;;;;;;;;;;;5013185;28;19909;-65
2020/12/15 09:18:25;;;;;;;;;;;;;;;;;;5012622;28;19909;-66
2020/12/15 09:20:51;;;;;;;;;;;;;;;;;;5011518;28;19935;-66
2020/12/15 09:23:17;;;;;;;;;;;;;;;;;;5011751;28;19917;-68
2020/12/15 09:25:43;;;;;;;;;;;;;;;;;;5012886;28;19906;-66
2020/12/15 09:28:09;;;;;;;;;;;;;;;;;;5013010;28;20128;-67
2020/12/15 09:30:35;;;;;;;;;;;;;;;;;;5014289;28;19992;-67
2020/12/15 09:33:01;;;;;;;;;;;;;;;;;;5012949;28;19905;-67
2020/12/15 09:35:27;;;;;;;;;;;;;;;;;;5011774;28;19905;-66
2020/12/15 09:37:53;;;;;;;;;;;;;;;;;;5012909;28;19997;-66
2020/12/15 09:40:22;;;;;;;;;;;;;;;;;;5011538;28;19940;-66
2020/12/15 09:42:48;;;;;;;;;;;;;;;;;;5012601;28;19996;-66
2020/12/15 09:45:14;;;;;;;;;;;;;;;;;;5012814;28;20018;-66
2020/12/15 09:47:39;;;;;;;;;;;;;;;;;;5012753;28;20357;-66
2020/12/15 09:50:05;;;;;;;;;;;;;;;;;;5011411;28;19905;-64
2020/12/15 09:52:31;;;;;;;;;;;;;;;;;;5011762;28;20294;-63
2020/12/15 09:54:57;;;;;;;;;;;;;;;;;;5011345;28;20430;-63
2020/12/15 09:57:23;;;;;;;;;;;;;;;;;;5012673;28;20507;-62
2020/12/15 09:59:50;;;;;;;;;;;;;;;;;;5011537;28;19928;-63
2020/12/15 10:02:16;;;;;;;;;;;;;;;;;;5012625;28;19913;-65
2020/12/15 10:04:42;;;;;;;;;;;;;;;;;;5011231;28;19912;-63
2020/12/15 10:07:08;;;;;;;;;;;;;;;;;;5011192;28;19905;-62
2020/12/15 10:09:34;;;;;;;;;;;;;;;;;;5012118;28;19945;-64
2020/12/15 10:12:00;;;;;;;;;;;;;;;;;;5014035;28;19910;-64
2020/12/15 10:14:26;;;;;;;;;;;;;;;;;;5013454;28;19951;-64
2020/12/15 10:16:52;;;;;;;;;;;;;;;;;;5013696;28;19956;-63
2020/12/15 10:19:18;;;;;;;;;;;;;;;;;;5014631;28;19952;-63
2020/12/15 10:21:44;;;;;;;;;;;;;;;;;;5014721;28;19924;-64
2020/12/15 10:24:10;;;;;;;;;;;;;;;;;;5014752;28;19967;-62
2020/12/15 10:26:36;;;;;;;;;;;;;;;;;;5014654;28;20353;-61
2020/12/15 10:29:02;;;;;;;;;;;;;;;;;;5014701;28;19951;-62
2020/12/15 10:31:28;;;;;;;;;;;;;;;;;;5015426;28;19905;-61
2020/12/15 10:33:53;;;;;;;;;;;;;;;;;;5015901;28;20433;-61
2020/12/15 10:36:20;;;;;;;;;;;;;;;;;;5015800;28;19941;-61
2020/12/15 10:38:45;;;;;;;;;;;;;;;;;;5014505;28;19912;-60
2020/12/15 10:41:12;;;;;;;;;;;;;;;;;;5015767;28;20289;-62
2020/12/15 10:43:37;;;;;;;;;;;;;;;;;;5015864;28;20481;-62
2020/12/15 10:46:03;;;;;;;;;;;;;;;;;;5016131;28;19956;-58
2020/12/15 10:48:30;;;;;;;;;;;;;;;;;;5015542;28;19905;-59
2020/12/15 10:50:56;;;;;;;;;;;;;;;;;;5015521;28;19906;-60
2020/12/15 10:53:22;;;;;;;;;;;;;;;;;;5015193;28;19916;-59
2020/12/15 10:55:48;;;;;;;;;;;;;;;;;;5015386;28;19997;-60
2020/12/15 10:58:14;;;;;;;;;;;;;;;;;;5015421;28;19936;-60
2020/12/15 11:00:40;;;;;;;;;;;;;;;;;;5014042;28;19909;-59
2020/12/15 11:03:06;;;;;;;;;;;;;;;;;;5015480;28;19920;-59
2020/12/15 11:05:32;;;;;;;;;;;;;;;;;;5015242;28;19912;-60
2020/12/15 11:07:58;;;;;;;;;;;;;;;;;;5015208;28;19905;-60
2020/12/15 11:10:24;;;;;;;;;;;;;;;;;;5015219;28;19913;-59
2020/12/15 11:12:50;;;;;;;;;;;;;;;;;;5014965;28;19920;-59
2020/12/15 11:15:15;;;;;;;;;;;;;;;;;;5015010;28;19961;-59
2020/12/15 11:17:41;;;;;;;;;;;;;;;;;;5014942;28;19944;-59
2020/12/15 11:20:07;;;;;;;;;;;;;;;;;;5015038;28;19906;-59
2020/12/15 11:22:33;;;;;;;;;;;;;;;;;;5014082;28;19914;-60
2020/12/15 11:24:59;;;;;;;;;;;;;;;;;;5014887;28;19988;-59
2020/12/15 11:27:25;;;;;;;;;;;;;;;;;;5014695;28;20350;-60
2020/12/15 11:29:51;;;;;;;;;;;;;;;;;;5014806;28;20346;-60
2020/12/15 11:32:17;;;;;;;;;;;;;;;;;;5014756;28;20005;-59
2020/12/15 11:34:44;;;;;;;;;;;;;;;;;;5013427;28;19992;-59
2020/12/15 11:37:12;;;;;;;;;;;;;;;;;;5014623;28;20287;-59
2020/12/15 11:39:38;;;;;;;;;;;;;;;;;;5014788;28;20011;-59
2020/12/15 11:42:04;;;;;;;;;;;;;;;;;;5014432;28;20365;-59
2020/12/15 11:44:30;;;;;;;;;;;;;;;;;;5013310;28;20354;-59
2020/12/15 11:46:56;;;;;;;;;;;;;;;;;;5014325;28;19905;-59
2020/12/15 11:49:22;;;;;;;;;;;;;;;;;;5014202;28;19906;-58
2020/12/15 11:51:48;;;;;;;;;;;;;;;;;;5014348;28;19906;-61
2020/12/15 11:54:14;;;;;;;;;;;;;;;;;;5012935;28;19905;-58
2020/12/15 11:56:40;;;;;;;;;;;;;;;;;;5013085;28;19916;-58
2020/12/15 11:59:06;;;;;;;;;;;;;;;;;;5014231;28;19905;-58
2020/12/15 12:01:32;;;;;;;;;;;;;;;;;;5014220;28;19927;-59
2020/12/15 12:03:57;;;;;;;;;;;;;;;;;;5014505;28;19989;-59
2020/12/15 12:06:23;;;;;;;;;;;;;;;;;;5014144;28;19941;-59
2020/12/15 12:08:49;;;;;;;;;;;;;;;;;;5014150;28;19960;-59
2020/12/15 12:11:15;;;;;;;;;;;;;;;;;;5012750;28;20270;-58
2020/12/15 12:13:41;;;;;;;;;;;;;;;;;;5013996;28;19967;-59
2020/12/15 12:16:08;;;;;;;;;;;;;;;;;;5013952;28;19906;-58
2020/12/15 12:18:34;;;;;;;;;;;;;;;;;;5013851;28;20358;-59
2020/12/15 12:21:00;;;;;;;;;;;;;;;;;;5013960;28;19912;-58
2020/12/15 12:23:26;;;;;;;;;;;;;;;;;;5013816;28;19913;-58
2020/12/15 12:25:52;;;;;;;;;;;;;;;;;;5013874;28;19912;-60
2020/12/15 12:28:18;;;;;;;;;;;;;;;;;;5014036;28;19906;-60
2020/12/15 12:30:44;;;;;;;;;;;;;;;;;;5013734;28;20008;-60
2020/12/15 12:33:10;;;;;;;;;;;;;;;;;;5013889;28;19913;-59
2020/12/15 12:35:36;;;;;;;;;;;;;;;;;;5012376;28;19913;-68
2020/12/15 12:38:03;;;;;;;;;;;;;;;;;;5013731;28;19906;-65
2020/12/15 12:40:29;;;;;;;;;;;;;;;;;;5012317;28;19913;-65
2020/12/15 12:42:59;;;;;;;;;;;;;;;;;;5013323;28;19921;-63
2020/12/15 12:45:25;;;;;;;;;;;;;;;;;;5012121;28;19910;-63
2020/12/15 12:47:50;;;;;;;;;;;;;;;;;;5013519;28;20412;-65
2020/12/15 12:50:16;;;;;;;;;;;;;;;;;;5013283;28;19905;-65
2020/12/15 12:52:42;;;;;;;;;;;;;;;;;;5013249;28;19960;-65
2020/12/15 12:55:08;;;;;;;;;;;;;;;;;;5013271;28;19901;-66
2020/12/15 12:57:35;;;;;;;;;;;;;;;;;;5013677;28;19940;-64
2020/12/15 13:00:01;;;;;;;;;;;;;;;;;;5013823;28;19996;-64
2020/12/15 13:02:27;;;;;;;;;;;;;;;;;;5013163;28;20325;-65
2020/12/15 13:04:53;;;;;;;;;;;;;;;;;;5013186;28;20266;-65
2020/12/15 13:07:19;;;;;;;;;;;;;;;;;;5013092;28;19906;-65
2020/12/15 13:09:45;;;;;;;;;;;;;;;;;;5013019;28;19905;-67
2020/12/15 13:12:11;;;;;;;;;;;;;;;;;;5012909;28;19999;-64
2020/12/15 13:14:37;;;;;;;;;;;;;;;;;;5012925;28;19920;-63
2020/12/15 13:17:04;;;;;;;;;;;;;;;;;;5013014;28;19925;-67
2020/12/15 13:19:30;;;;;;;;;;;;;;;;;;5021896;28;19948;-65
2020/12/15 13:21:56;;;;;;;;;;;;;;;;;;5015559;28;20391;-64
2020/12/15 13:24:22;;;;;;;;;;;;;;;;;;5011082;28;19929;-65
2020/12/15 13:26:48;;;;;;;;;;;;;;;;;;5011196;28;19901;-65
2020/12/15 13:29:14;;;;;;;;;;;;;;;;;;5011101;28;19912;-66
2020/12/15 13:31:40;;;;;;;;;;;;;;;;;;5011268;28;19906;-66
2020/12/15 13:34:06;;;;;;;;;;;;;;;;;;5011206;28;20255;-65
2020/12/15 13:36:32;;;;;;;;;;;;;;;;;;5012641;28;19959;-65
2020/12/15 13:38:58;;;;;;;;;;;;;;;;;;5011563;28;19960;-65
2020/12/15 13:41:24;;;;;;;;;;;;;;;;;;5013076;28;19905;-65
2020/12/15 13:43:50;;;;;;;;;;;;;;;;;;5012920;28;19916;-65
2020/12/15 13:46:16;;;;;;;;;;;;;;;;;;5013339;28;19960;-66
2020/12/15 13:48:42;;;;;;;;;;;;;;;;;;5017163;28;19909;-66
2020/12/15 13:51:08;;;;;;;;;;;;;;;;;;5015710;28;19920;-65
2020/12/15 13:53:34;;;;;;;;;;;;;;;;;;5016780;28;19905;-65
2020/12/15 13:56:00;;;;;;;;;;;;;;;;;;5016761;28;19961;-65
2020/12/15 13:58:26;;;;;;;;;;;;;;;;;;5016684;28;19909;-66
2020/12/15 14:00:52;;;;;;;;;;;;;;;;;;5016636;28;19928;-66
2020/12/15 14:03:18;;;;;;;;;;;;;;;;;;5016570;28;20340;-65
2020/12/15 14:05:44;;;;;;;;;;;;;;;;;;5015286;28;20350;-65
2020/12/15 14:08:10;;;;;;;;;;;;;;;;;;5015307;28;19909;-66
2020/12/15 14:10:36;;;;;;;;;;;;;;;;;;5016618;28;20376;-65
2020/12/15 14:13:02;;;;;;;;;;;;;;;;;;5014980;28;19935;-65
2020/12/15 14:15:28;;;;;;;;;;;;;;;;;;5015238;28;19906;-66
2020/12/15 14:17:54;;;;;;;;;;;;;;;;;;5014786;28;19913;-66
2020/12/15 14:20:19;;;;;;;;;;;;;;;;;;5014902;28;19905;-65
2020/12/15 14:22:49;;;;;;;;;;;;;;;;;;5019010;28;20098;-65
2020/12/15 14:25:15;;;;;;;;;;;;;;;;;;5016280;28;19967;-68
2020/12/15 14:27:41;;;;;;;;;;;;;;;;;;5014232;28;20026;-63
2020/12/15 14:30:08;;;;;;;;;;;;;;;;;;5013970;28;20345;-65
2020/12/15 14:32:34;;;;;;;;;;;;;;;;;;5015303;28;19928;-65
2020/12/15 14:35:00;;;;;;;;;;;;;;;;;;5016154;28;20414;-65
2020/12/15 14:37:26;;;;;;;;;;;;;;;;;;5017857;28;19906;-66
2020/12/15 14:39:52;;;;;;;;;;;;;;;;;;5015642;28;19915;-65
2020/12/15 14:42:17;;;;;;;;;;;;;;;;;;5015749;28;19917;-63
2020/12/15 14:44:43;;;;;;;;;;;;;;;;;;5015224;28;19941;-63
2020/12/15 14:47:09;;;;;;;;;;;;;;;;;;5015387;28;19905;-62
2020/12/15 14:49:35;;;;;;;;;;;;;;;;;;5015348;28;19909;-63
2020/12/15 14:52:01;;;;;;;;;;;;;;;;;;5015242;28;20342;-66
2020/12/15 14:54:27;;;;;;;;;;;;;;;;;;5015628;28;19947;-62
2020/12/15 14:56:53;;;;;;;;;;;;;;;;;;5015170;28;19913;-65
2020/12/15 14:59:19;;;;;;;;;;;;;;;;;;5016522;28;19928;-65
2020/12/15 15:01:45;;;;;;;;;;;;;;;;;;5016776;28;19909;-66
2020/12/15 15:04:11;;;;;;;;;;;;;;;;;;5015278;28;19906;-64
2020/12/15 15:06:38;;;;;;;;;;;;;;;;;;5015722;28;19901;-67
2020/12/15 15:09:05;;;;;;;;;;;;;;;;;;5020903;28;19960;-67
2020/12/15 15:11:31;;;;;;;;;;;;;;;;;;5016130;28;19948;-65
2020/12/15 15:13:57;;;;;;;;;;;;;;;;;;5015860;28;19905;-65
2020/12/15 15:16:23;;;;;;;;;;;;;;;;;;5015064;28;19912;-65
2020/12/15 15:18:49;;;;;;;;;;;;;;;;;;5015166;28;19913;-64
2020/12/15 15:21:15;;;;;;;;;;;;;;;;;;5014832;28;19992;-64
2020/12/15 15:23:41;;;;;;;;;;;;;;;;;;5015112;28;19996;-64
2020/12/15 15:26:08;;;;;;;;;;;;;;;;;;5015065;28;20009;-65
2020/12/15 15:28:34;;;;;;;;;;;;;;;;;;5013576;28;19943;-65
2020/12/15 15:31:00;;;;;;;;;;;;;;;;;;5014902;28;19958;-66
2020/12/15 15:33:26;;;;;;;;;;;;;;;;;;5014663;28;19906;-65
2020/12/15 15:35:52;;;;;;;;;;;;;;;;;;5015018;28;19906;-66
2020/12/15 15:38:18;;;;;;;;;;;;;;;;;;5015241;28;19905;-65
2020/12/15 15:40:44;;;;;;;;;;;;;;;;;;5014920;28;19909;-66
2020/12/15 15:43:10;;;;;;;;;;;;;;;;;;5014578;28;19967;-69
2020/12/15 15:45:36;;;;;;;;;;;;;;;;;;5014670;28;19917;-66
2020/12/15 15:48:02;;;;;;;;;;;;;;;;;;5014563;28;19909;-66
2020/12/15 15:50:28;;;;;;;;;;;;;;;;;;5014415;28;20001;-65
2020/12/15 15:52:54;;;;;;;;;;;;;;;;;;5015729;28;20333;-68
2020/12/15 15:55:20;;;;;;;;;;;;;;;;;;5014704;28;20350;-67
2020/12/15 15:57:46;;;;;;;;;;;;;;;;;;5014659;28;19905;-67
2020/12/15 16:00:12;;;;;;;;;;;;;;;;;;5013157;28;19905;-65
2020/12/15 16:02:38;;;;;;;;;;;;;;;;;;5012850;28;19969;-73
2020/12/15 16:05:04;;;;;;;;;;;;;;;;;;5012914;28;19910;-68
2020/12/15 16:07:30;;;;;;;;;;;;;;;;;;5012691;28;19913;-69
2020/12/15 16:09:56;;;;;;;;;;;;;;;;;;5012286;28;20125;-69
2020/12/15 16:12:22;;;;;;;;;;;;;;;;;;5012571;28;19913;-68
2020/12/15 16:14:48;;;;;;;;;;;;;;;;;;5013084;28;20259;-69
2020/12/15 16:17:15;;;;;;;;;;;;;;;;;;5013338;28;20282;-68
2020/12/15 16:19:41;;;;;;;;;;;;;;;;;;5013602;28;19905;-67
2020/12/15 16:22:06;;;;;;;;;;;;;;;;;;5013676;28;19916;-68
2020/12/15 16:24:32;;;;;;;;;;;;;;;;;;5013860;28;20008;-68
2020/12/15 16:26:58;;;;;;;;;;;;;;;;;;5014203;28;19905;-68
2020/12/15 16:29:24;;;;;;;;;;;;;;;;;;5014047;28;19909;-67
2020/12/15 16:31:50;;;;;;;;;;;;;;;;;;5013861;28;19913;-71
2020/12/15 16:34:16;;;;;;;;;;;;;;;;;;5013746;28;19924;-69
2020/12/15 16:36:42;;;;;;;;;;;;;;;;;;5010710;28;19909;-69